sensor_id;sensor_type;location;lat;lon;timestamp;P1;durP1;ratioP1;P2;durP2;ratioP2
58083;SDS011;43882;51.550;11.858;2024-02-26T00:01:53;16.27;;;5.20;;
58083;SDS011;43882;51.550;11.858;2024-02-26T00:04:19;15.35;;;5.00;;
58083;SDS011;43882;51.550;11.858;2024-02-26T00:06:46;16.13;;;5.65;;
58083;SDS011;43882;51.550;11.858;2024-02-26T00:09:15;16.00;;;5.60;;
58083;SDS011;43882;51.550;11.858;2024-02-26T00:11:41;15.63;;;5.22;;
58083;SDS011;43882;51.550;11.858;2024-02-26T00:14:07;16.38;;;5.68;;
58083;SDS011;43882;51.550;11.858;2024-02-26T00:16:33;16.25;;;5.45;;
58083;SDS011;43882;51.550;11.858;2024-02-26T00:18:59;16.42;;;5.63;;
58083;SDS011;43882;51.550;11.858;2024-02-26T00:21:25;16.85;;;6.00;;
58083;SDS011;43882;51.550;11.858;2024-02-26T00:23:53;15.10;;;5.22;;
58083;SDS011;43882;51.550;11.858;2024-02-26T00:26:19;17.77;;;6.20;;
58083;SDS011;43882;51.550;11.858;2024-02-26T00:28:45;15.77;;;5.45;;
58083;SDS011;43882;51.550;11.858;2024-02-26T00:31:11;17.27;;;6.25;;
58083;SDS011;43882;51.550;11.858;2024-02-26T00:33:37;19.45;;;6.18;;
58083;SDS011;43882;51.550;11.858;2024-02-26T00:36:03;16.70;;;5.43;;
58083;SDS011;43882;51.550;11.858;2024-02-26T00:38:30;19.30;;;6.80;;
58083;SDS011;43882;51.550;11.858;2024-02-26T00:40:56;19.58;;;6.13;;
58083;SDS011;43882;51.550;11.858;2024-02-26T00:43:22;18.88;;;6.65;;
58083;SDS011;43882;51.550;11.858;2024-02-26T00:45:48;18.88;;;6.60;;
58083;SDS011;43882;51.550;11.858;2024-02-26T00:48:14;18.77;;;6.85;;
58083;SDS011;43882;51.550;11.858;2024-02-26T00:50:40;19.30;;;6.13;;
58083;SDS011;43882;51.550;11.858;2024-02-26T00:53:07;18.58;;;6.55;;
58083;SDS011;43882;51.550;11.858;2024-02-26T00:55:33;18.73;;;6.53;;
58083;SDS011;43882;51.550;11.858;2024-02-26T00:57:59;18.13;;;6.45;;
58083;SDS011;43882;51.550;11.858;2024-02-26T01:00:25;19.17;;;6.50;;
58083;SDS011;43882;51.550;11.858;2024-02-26T01:02:51;18.48;;;6.88;;
58083;SDS011;43882;51.550;11.858;2024-02-26T01:05:18;19.58;;;7.20;;
58083;SDS011;43882;51.550;11.858;2024-02-26T01:07:44;19.00;;;6.75;;
58083;SDS011;43882;51.550;11.858;2024-02-26T01:10:10;18.50;;;6.97;;
58083;SDS011;43882;51.550;11.858;2024-02-26T01:12:36;18.67;;;6.97;;
58083;SDS011;43882;51.550;11.858;2024-02-26T01:15:02;19.13;;;7.07;;
58083;SDS011;43882;51.550;11.858;2024-02-26T01:17:29;20.65;;;7.35;;
58083;SDS011;43882;51.550;11.858;2024-02-26T01:19:55;19.15;;;6.88;;
58083;SDS011;43882;51.550;11.858;2024-02-26T01:22:21;19.77;;;7.13;;
58083;SDS011;43882;51.550;11.858;2024-02-26T01:24:47;20.58;;;6.53;;
58083;SDS011;43882;51.550;11.858;2024-02-26T01:27:13;18.70;;;7.60;;
58083;SDS011;43882;51.550;11.858;2024-02-26T01:29:40;20.58;;;8.05;;
58083;SDS011;43882;51.550;11.858;2024-02-26T01:32:06;20.50;;;7.32;;
58083;SDS011;43882;51.550;11.858;2024-02-26T01:34:33;20.80;;;7.80;;
58083;SDS011;43882;51.550;11.858;2024-02-26T01:36:59;21.33;;;8.27;;
58083;SDS011;43882;51.550;11.858;2024-02-26T01:39:25;20.80;;;8.23;;
58083;SDS011;43882;51.550;11.858;2024-02-26T01:41:54;22.55;;;8.60;;
58083;SDS011;43882;51.550;11.858;2024-02-26T01:44:20;22.92;;;8.95;;
58083;SDS011;43882;51.550;11.858;2024-02-26T01:46:46;25.50;;;9.63;;
58083;SDS011;43882;51.550;11.858;2024-02-26T01:49:13;23.10;;;8.77;;
58083;SDS011;43882;51.550;11.858;2024-02-26T01:51:40;24.88;;;9.27;;
58083;SDS011;43882;51.550;11.858;2024-02-26T01:54:07;24.10;;;9.48;;
58083;SDS011;43882;51.550;11.858;2024-02-26T01:56:34;25.92;;;10.98;;
58083;SDS011;43882;51.550;11.858;2024-02-26T01:59:01;23.88;;;9.80;;
58083;SDS011;43882;51.550;11.858;2024-02-26T02:01:27;23.00;;;9.32;;
58083;SDS011;43882;51.550;11.858;2024-02-26T02:03:58;25.52;;;10.30;;
58083;SDS011;43882;51.550;11.858;2024-02-26T02:06:25;23.85;;;9.18;;
58083;SDS011;43882;51.550;11.858;2024-02-26T02:08:52;23.30;;;9.27;;
58083;SDS011;43882;51.550;11.858;2024-02-26T02:11:19;22.10;;;8.50;;
58083;SDS011;43882;51.550;11.858;2024-02-26T02:13:46;21.95;;;8.50;;
58083;SDS011;43882;51.550;11.858;2024-02-26T02:16:12;22.88;;;8.23;;
58083;SDS011;43882;51.550;11.858;2024-02-26T02:18:38;22.27;;;8.48;;
58083;SDS011;43882;51.550;11.858;2024-02-26T02:21:04;21.00;;;8.43;;
58083;SDS011;43882;51.550;11.858;2024-02-26T02:23:30;21.95;;;8.77;;
58083;SDS011;43882;51.550;11.858;2024-02-26T02:25:57;23.08;;;8.30;;
58083;SDS011;43882;51.550;11.858;2024-02-26T02:28:25;21.75;;;7.82;;
58083;SDS011;43882;51.550;11.858;2024-02-26T02:30:51;23.40;;;8.48;;
58083;SDS011;43882;51.550;11.858;2024-02-26T02:33:17;21.33;;;7.93;;
58083;SDS011;43882;51.550;11.858;2024-02-26T02:35:43;19.95;;;7.32;;
58083;SDS011;43882;51.550;11.858;2024-02-26T02:38:10;23.38;;;8.60;;
58083;SDS011;43882;51.550;11.858;2024-02-26T02:40:36;21.05;;;7.60;;
58083;SDS011;43882;51.550;11.858;2024-02-26T02:43:02;20.67;;;7.55;;
58083;SDS011;43882;51.550;11.858;2024-02-26T02:45:29;19.95;;;7.20;;
58083;SDS011;43882;51.550;11.858;2024-02-26T02:47:55;20.73;;;7.65;;
58083;SDS011;43882;51.550;11.858;2024-02-26T02:50:21;19.02;;;7.38;;
58083;SDS011;43882;51.550;11.858;2024-02-26T02:52:47;20.55;;;7.68;;
58083;SDS011;43882;51.550;11.858;2024-02-26T02:55:15;21.45;;;8.18;;
58083;SDS011;43882;51.550;11.858;2024-02-26T02:57:41;21.13;;;7.88;;
58083;SDS011;43882;51.550;11.858;2024-02-26T03:00:10;21.35;;;8.15;;
58083;SDS011;43882;51.550;11.858;2024-02-26T03:02:37;21.40;;;7.47;;
58083;SDS011;43882;51.550;11.858;2024-02-26T03:05:06;19.65;;;7.45;;
58083;SDS011;43882;51.550;11.858;2024-02-26T03:07:32;23.10;;;8.23;;
58083;SDS011;43882;51.550;11.858;2024-02-26T03:09:58;20.92;;;8.32;;
58083;SDS011;43882;51.550;11.858;2024-02-26T03:12:24;22.55;;;9.18;;
58083;SDS011;43882;51.550;11.858;2024-02-26T03:14:50;22.05;;;9.15;;
58083;SDS011;43882;51.550;11.858;2024-02-26T03:17:18;24.52;;;9.48;;
58083;SDS011;43882;51.550;11.858;2024-02-26T03:19:45;21.17;;;8.32;;
58083;SDS011;43882;51.550;11.858;2024-02-26T03:22:12;23.20;;;9.73;;
58083;SDS011;43882;51.550;11.858;2024-02-26T03:24:38;24.48;;;9.80;;
58083;SDS011;43882;51.550;11.858;2024-02-26T03:27:04;21.58;;;9.55;;
58083;SDS011;43882;51.550;11.858;2024-02-26T03:29:34;22.25;;;10.02;;
58083;SDS011;43882;51.550;11.858;2024-02-26T03:32:00;24.90;;;10.80;;
58083;SDS011;43882;51.550;11.858;2024-02-26T03:34:27;24.15;;;10.68;;
58083;SDS011;43882;51.550;11.858;2024-02-26T03:36:53;22.67;;;10.80;;
58083;SDS011;43882;51.550;11.858;2024-02-26T03:39:19;25.80;;;10.05;;
58083;SDS011;43882;51.550;11.858;2024-02-26T03:41:45;23.25;;;9.20;;
58083;SDS011;43882;51.550;11.858;2024-02-26T03:44:11;24.02;;;9.77;;
58083;SDS011;43882;51.550;11.858;2024-02-26T03:46:37;24.58;;;9.25;;
58083;SDS011;43882;51.550;11.858;2024-02-26T03:49:04;22.80;;;9.35;;
58083;SDS011;43882;51.550;11.858;2024-02-26T03:51:30;22.17;;;8.70;;
58083;SDS011;43882;51.550;11.858;2024-02-26T03:53:57;22.15;;;8.65;;
58083;SDS011;43882;51.550;11.858;2024-02-26T03:56:23;22.88;;;8.95;;
58083;SDS011;43882;51.550;11.858;2024-02-26T03:58:50;22.85;;;9.27;;
58083;SDS011;43882;51.550;11.858;2024-02-26T04:01:16;22.90;;;8.60;;
58083;SDS011;43882;51.550;11.858;2024-02-26T04:03:42;22.35;;;9.15;;
58083;SDS011;43882;51.550;11.858;2024-02-26T04:06:08;23.23;;;9.20;;
58083;SDS011;43882;51.550;11.858;2024-02-26T04:08:35;26.05;;;9.85;;
58083;SDS011;43882;51.550;11.858;2024-02-26T04:11:02;26.63;;;10.82;;
58083;SDS011;43882;51.550;11.858;2024-02-26T04:13:32;21.80;;;9.23;;
58083;SDS011;43882;51.550;11.858;2024-02-26T04:15:58;24.63;;;9.60;;
58083;SDS011;43882;51.550;11.858;2024-02-26T04:18:26;24.55;;;8.65;;
58083;SDS011;43882;51.550;11.858;2024-02-26T04:20:53;21.65;;;8.85;;
58083;SDS011;43882;51.550;11.858;2024-02-26T04:23:19;23.92;;;9.73;;
58083;SDS011;43882;51.550;11.858;2024-02-26T04:25:45;26.65;;;11.52;;
58083;SDS011;43882;51.550;11.858;2024-02-26T04:28:12;24.92;;;10.57;;
58083;SDS011;43882;51.550;11.858;2024-02-26T04:30:38;29.55;;;11.75;;
58083;SDS011;43882;51.550;11.858;2024-02-26T04:33:04;32.05;;;12.77;;
58083;SDS011;43882;51.550;11.858;2024-02-26T04:35:30;32.63;;;14.20;;
58083;SDS011;43882;51.550;11.858;2024-02-26T04:37:56;32.38;;;13.90;;
58083;SDS011;43882;51.550;11.858;2024-02-26T04:40:22;33.90;;;14.43;;
58083;SDS011;43882;51.550;11.858;2024-02-26T04:42:49;31.55;;;14.10;;
58083;SDS011;43882;51.550;11.858;2024-02-26T04:45:15;33.63;;;14.15;;
58083;SDS011;43882;51.550;11.858;2024-02-26T04:47:41;31.83;;;14.10;;
58083;SDS011;43882;51.550;11.858;2024-02-26T04:50:07;31.50;;;13.00;;
58083;SDS011;43882;51.550;11.858;2024-02-26T04:52:33;32.90;;;15.18;;
58083;SDS011;43882;51.550;11.858;2024-02-26T04:55:01;30.35;;;13.02;;
58083;SDS011;43882;51.550;11.858;2024-02-26T04:57:27;31.45;;;13.70;;
58083;SDS011;43882;51.550;11.858;2024-02-26T04:59:54;35.22;;;14.68;;
58083;SDS011;43882;51.550;11.858;2024-02-26T05:02:20;33.13;;;15.18;;
58083;SDS011;43882;51.550;11.858;2024-02-26T05:04:46;37.63;;;15.52;;
58083;SDS011;43882;51.550;11.858;2024-02-26T05:07:12;37.25;;;16.17;;
58083;SDS011;43882;51.550;11.858;2024-02-26T05:09:39;39.38;;;16.95;;
58083;SDS011;43882;51.550;11.858;2024-02-26T05:12:07;36.75;;;17.00;;
58083;SDS011;43882;51.550;11.858;2024-02-26T05:14:33;36.15;;;15.52;;
58083;SDS011;43882;51.550;11.858;2024-02-26T05:16:59;36.63;;;15.13;;
58083;SDS011;43882;51.550;11.858;2024-02-26T05:19:25;38.67;;;16.63;;
58083;SDS011;43882;51.550;11.858;2024-02-26T05:21:51;36.30;;;16.10;;
58083;SDS011;43882;51.550;11.858;2024-02-26T05:24:17;35.72;;;15.45;;
58083;SDS011;43882;51.550;11.858;2024-02-26T05:26:43;34.80;;;16.38;;
58083;SDS011;43882;51.550;11.858;2024-02-26T05:29:10;34.70;;;15.30;;
58083;SDS011;43882;51.550;11.858;2024-02-26T05:31:36;37.83;;;17.05;;
58083;SDS011;43882;51.550;11.858;2024-02-26T05:34:02;34.40;;;15.77;;
58083;SDS011;43882;51.550;11.858;2024-02-26T05:36:28;36.40;;;15.95;;
58083;SDS011;43882;51.550;11.858;2024-02-26T05:38:58;37.95;;;17.20;;
58083;SDS011;43882;51.550;11.858;2024-02-26T05:41:28;38.22;;;16.90;;
58083;SDS011;43882;51.550;11.858;2024-02-26T05:43:54;39.33;;;17.42;;
58083;SDS011;43882;51.550;11.858;2024-02-26T05:46:21;41.45;;;17.08;;
58083;SDS011;43882;51.550;11.858;2024-02-26T05:48:49;42.85;;;17.45;;
58083;SDS011;43882;51.550;11.858;2024-02-26T05:51:16;45.22;;;19.25;;
58083;SDS011;43882;51.550;11.858;2024-02-26T05:53:42;41.67;;;17.65;;
58083;SDS011;43882;51.550;11.858;2024-02-26T05:56:08;44.60;;;17.27;;
58083;SDS011;43882;51.550;11.858;2024-02-26T05:58:34;44.90;;;18.60;;
58083;SDS011;43882;51.550;11.858;2024-02-26T06:01:00;43.55;;;18.00;;
58083;SDS011;43882;51.550;11.858;2024-02-26T06:03:26;39.13;;;16.70;;
58083;SDS011;43882;51.550;11.858;2024-02-26T06:05:53;37.60;;;16.55;;
58083;SDS011;43882;51.550;11.858;2024-02-26T06:08:19;31.42;;;13.82;;
58083;SDS011;43882;51.550;11.858;2024-02-26T06:10:45;28.20;;;11.80;;
58083;SDS011;43882;51.550;11.858;2024-02-26T06:13:11;27.92;;;12.63;;
58083;SDS011;43882;51.550;11.858;2024-02-26T06:15:37;26.83;;;10.95;;
58083;SDS011;43882;51.550;11.858;2024-02-26T06:18:03;30.70;;;11.90;;
58083;SDS011;43882;51.550;11.858;2024-02-26T06:20:29;29.17;;;11.80;;
58083;SDS011;43882;51.550;11.858;2024-02-26T06:22:55;26.52;;;11.15;;
58083;SDS011;43882;51.550;11.858;2024-02-26T06:25:21;28.98;;;12.25;;
58083;SDS011;43882;51.550;11.858;2024-02-26T06:27:48;31.80;;;13.00;;
58083;SDS011;43882;51.550;11.858;2024-02-26T06:30:14;30.67;;;13.38;;
58083;SDS011;43882;51.550;11.858;2024-02-26T06:32:40;29.88;;;13.25;;
58083;SDS011;43882;51.550;11.858;2024-02-26T06:35:06;30.70;;;14.00;;
58083;SDS011;43882;51.550;11.858;2024-02-26T06:37:34;30.67;;;14.38;;
58083;SDS011;43882;51.550;11.858;2024-02-26T06:40:01;32.30;;;13.50;;
58083;SDS011;43882;51.550;11.858;2024-02-26T06:42:31;31.77;;;13.70;;
58083;SDS011;43882;51.550;11.858;2024-02-26T06:44:57;31.33;;;13.88;;
58083;SDS011;43882;51.550;11.858;2024-02-26T06:47:24;29.75;;;13.45;;
58083;SDS011;43882;51.550;11.858;2024-02-26T06:49:50;29.30;;;13.77;;
58083;SDS011;43882;51.550;11.858;2024-02-26T06:52:17;30.63;;;13.43;;
58083;SDS011;43882;51.550;11.858;2024-02-26T06:54:43;30.42;;;13.85;;
58083;SDS011;43882;51.550;11.858;2024-02-26T06:57:09;30.40;;;14.23;;
58083;SDS011;43882;51.550;11.858;2024-02-26T06:59:36;30.13;;;13.88;;
58083;SDS011;43882;51.550;11.858;2024-02-26T07:02:02;34.55;;;14.57;;
58083;SDS011;43882;51.550;11.858;2024-02-26T07:04:28;31.35;;;13.73;;
58083;SDS011;43882;51.550;11.858;2024-02-26T07:06:57;31.02;;;13.75;;
58083;SDS011;43882;51.550;11.858;2024-02-26T07:09:23;29.50;;;14.45;;
58083;SDS011;43882;51.550;11.858;2024-02-26T07:11:50;29.25;;;14.00;;
58083;SDS011;43882;51.550;11.858;2024-02-26T07:14:16;31.02;;;13.43;;
58083;SDS011;43882;51.550;11.858;2024-02-26T07:16:42;25.67;;;12.45;;
58083;SDS011;43882;51.550;11.858;2024-02-26T07:19:08;29.55;;;13.95;;
58083;SDS011;43882;51.550;11.858;2024-02-26T07:21:34;28.73;;;13.32;;
58083;SDS011;43882;51.550;11.858;2024-02-26T07:24:00;29.90;;;13.75;;
58083;SDS011;43882;51.550;11.858;2024-02-26T07:26:26;28.52;;;12.77;;
58083;SDS011;43882;51.550;11.858;2024-02-26T07:28:54;29.73;;;13.13;;
58083;SDS011;43882;51.550;11.858;2024-02-26T07:31:20;28.33;;;13.05;;
58083;SDS011;43882;51.550;11.858;2024-02-26T07:33:47;30.83;;;13.65;;
58083;SDS011;43882;51.550;11.858;2024-02-26T07:36:13;31.15;;;14.93;;
58083;SDS011;43882;51.550;11.858;2024-02-26T07:38:39;32.08;;;13.63;;
58083;SDS011;43882;51.550;11.858;2024-02-26T07:41:05;33.15;;;15.05;;
58083;SDS011;43882;51.550;11.858;2024-02-26T07:43:31;33.38;;;15.10;;
58083;SDS011;43882;51.550;11.858;2024-02-26T07:45:57;41.00;;;15.00;;
58083;SDS011;43882;51.550;11.858;2024-02-26T07:48:23;32.47;;;15.80;;
58083;SDS011;43882;51.550;11.858;2024-02-26T07:50:49;32.17;;;14.98;;
58083;SDS011;43882;51.550;11.858;2024-02-26T07:53:15;29.08;;;13.85;;
58083;SDS011;43882;51.550;11.858;2024-02-26T07:55:42;31.63;;;14.60;;
58083;SDS011;43882;51.550;11.858;2024-02-26T07:58:08;30.00;;;14.48;;
58083;SDS011;43882;51.550;11.858;2024-02-26T08:00:34;29.23;;;13.98;;
58083;SDS011;43882;51.550;11.858;2024-02-26T08:03:00;28.35;;;13.32;;
58083;SDS011;43882;51.550;11.858;2024-02-26T08:05:26;28.65;;;13.40;;
58083;SDS011;43882;51.550;11.858;2024-02-26T08:07:52;29.33;;;15.63;;
58083;SDS011;43882;51.550;11.858;2024-02-26T08:10:19;33.42;;;14.88;;
58083;SDS011;43882;51.550;11.858;2024-02-26T08:12:45;30.67;;;14.52;;
58083;SDS011;43882;51.550;11.858;2024-02-26T08:15:12;31.98;;;14.15;;
58083;SDS011;43882;51.550;11.858;2024-02-26T08:17:38;31.17;;;14.20;;
58083;SDS011;43882;51.550;11.858;2024-02-26T08:20:04;30.65;;;13.50;;
58083;SDS011;43882;51.550;11.858;2024-02-26T08:22:30;29.92;;;12.93;;
58083;SDS011;43882;51.550;11.858;2024-02-26T08:24:59;29.52;;;13.10;;
58083;SDS011;43882;51.550;11.858;2024-02-26T08:27:25;29.27;;;12.85;;
58083;SDS011;43882;51.550;11.858;2024-02-26T08:29:51;28.52;;;12.55;;
58083;SDS011;43882;51.550;11.858;2024-02-26T08:32:17;29.13;;;11.55;;
58083;SDS011;43882;51.550;11.858;2024-02-26T08:34:43;27.95;;;11.32;;
58083;SDS011;43882;51.550;11.858;2024-02-26T08:37:09;30.40;;;12.07;;
58083;SDS011;43882;51.550;11.858;2024-02-26T08:39:36;27.80;;;12.27;;
58083;SDS011;43882;51.550;11.858;2024-02-26T08:42:02;27.70;;;12.10;;
58083;SDS011;43882;51.550;11.858;2024-02-26T08:44:28;27.23;;;12.73;;
58083;SDS011;43882;51.550;11.858;2024-02-26T08:46:54;29.85;;;12.18;;
58083;SDS011;43882;51.550;11.858;2024-02-26T08:49:20;30.52;;;12.98;;
58083;SDS011;43882;51.550;11.858;2024-02-26T08:51:48;28.10;;;10.88;;
58083;SDS011;43882;51.550;11.858;2024-02-26T08:54:14;37.28;;;12.25;;
58083;SDS011;43882;51.550;11.858;2024-02-26T08:56:40;28.35;;;11.52;;
58083;SDS011;43882;51.550;11.858;2024-02-26T08:59:06;28.38;;;12.43;;
58083;SDS011;43882;51.550;11.858;2024-02-26T09:01:32;28.10;;;13.00;;
58083;SDS011;43882;51.550;11.858;2024-02-26T09:03:58;26.42;;;11.85;;
58083;SDS011;43882;51.550;11.858;2024-02-26T09:06:24;28.40;;;11.68;;
58083;SDS011;43882;51.550;11.858;2024-02-26T09:08:51;29.60;;;12.93;;
58083;SDS011;43882;51.550;11.858;2024-02-26T09:11:17;26.08;;;11.00;;
58083;SDS011;43882;51.550;11.858;2024-02-26T09:13:43;29.50;;;11.70;;
58083;SDS011;43882;51.550;11.858;2024-02-26T09:16:09;27.98;;;11.77;;
58083;SDS011;43882;51.550;11.858;2024-02-26T09:18:36;26.88;;;11.27;;
58083;SDS011;43882;51.550;11.858;2024-02-26T09:21:05;25.70;;;11.30;;
58083;SDS011;43882;51.550;11.858;2024-02-26T09:23:31;25.95;;;11.68;;
58083;SDS011;43882;51.550;11.858;2024-02-26T09:25:58;25.33;;;11.75;;
58083;SDS011;43882;51.550;11.858;2024-02-26T09:28:24;29.92;;;11.93;;
58083;SDS011;43882;51.550;11.858;2024-02-26T09:30:50;26.88;;;11.23;;
58083;SDS011;43882;51.550;11.858;2024-02-26T09:33:16;25.10;;;11.15;;
58083;SDS011;43882;51.550;11.858;2024-02-26T09:35:42;25.38;;;11.50;;
58083;SDS011;43882;51.550;11.858;2024-02-26T09:38:08;25.77;;;11.25;;
58083;SDS011;43882;51.550;11.858;2024-02-26T09:40:34;26.38;;;11.48;;
58083;SDS011;43882;51.550;11.858;2024-02-26T09:43:02;26.00;;;10.73;;
58083;SDS011;43882;51.550;11.858;2024-02-26T09:45:30;25.15;;;11.48;;
58083;SDS011;43882;51.550;11.858;2024-02-26T09:47:58;25.85;;;11.65;;
58083;SDS011;43882;51.550;11.858;2024-02-26T09:50:24;25.48;;;12.23;;
58083;SDS011;43882;51.550;11.858;2024-02-26T09:52:51;27.63;;;11.32;;
58083;SDS011;43882;51.550;11.858;2024-02-26T09:55:20;26.35;;;11.15;;
58083;SDS011;43882;51.550;11.858;2024-02-26T09:57:46;25.98;;;11.25;;
58083;SDS011;43882;51.550;11.858;2024-02-26T10:00:14;26.48;;;12.15;;
58083;SDS011;43882;51.550;11.858;2024-02-26T10:02:47;24.85;;;10.82;;
58083;SDS011;43882;51.550;11.858;2024-02-26T10:05:17;26.05;;;11.40;;
58083;SDS011;43882;51.550;11.858;2024-02-26T10:10:13;25.83;;;11.30;;
58083;SDS011;43882;51.550;11.858;2024-02-26T10:12:40;25.00;;;10.98;;
58083;SDS011;43882;51.550;11.858;2024-02-26T10:15:06;27.38;;;11.15;;
58083;SDS011;43882;51.550;11.858;2024-02-26T10:17:33;27.27;;;11.30;;
58083;SDS011;43882;51.550;11.858;2024-02-26T10:20:10;26.05;;;10.65;;
58083;SDS011;43882;51.550;11.858;2024-02-26T10:22:37;24.40;;;10.27;;
58083;SDS011;43882;51.550;11.858;2024-02-26T10:25:03;23.40;;;10.25;;
58083;SDS011;43882;51.550;11.858;2024-02-26T10:27:30;27.33;;;11.18;;
58083;SDS011;43882;51.550;11.858;2024-02-26T10:30:02;23.23;;;10.43;;
58083;SDS011;43882;51.550;11.858;2024-02-26T10:32:29;25.15;;;11.38;;
58083;SDS011;43882;51.550;11.858;2024-02-26T10:34:57;25.33;;;11.05;;
58083;SDS011;43882;51.550;11.858;2024-02-26T10:37:23;24.38;;;10.80;;
58083;SDS011;43882;51.550;11.858;2024-02-26T10:39:50;29.65;;;12.63;;
58083;SDS011;43882;51.550;11.858;2024-02-26T10:42:16;26.27;;;11.27;;
58083;SDS011;43882;51.550;11.858;2024-02-26T10:44:44;26.15;;;11.18;;
58083;SDS011;43882;51.550;11.858;2024-02-26T10:47:10;25.67;;;10.82;;
58083;SDS011;43882;51.550;11.858;2024-02-26T10:49:37;25.23;;;11.80;;
58083;SDS011;43882;51.550;11.858;2024-02-26T10:52:03;25.77;;;11.25;;
58083;SDS011;43882;51.550;11.858;2024-02-26T10:54:31;25.50;;;10.80;;
58083;SDS011;43882;51.550;11.858;2024-02-26T10:56:58;27.30;;;11.65;;
58083;SDS011;43882;51.550;11.858;2024-02-26T10:59:24;28.02;;;11.93;;
58083;SDS011;43882;51.550;11.858;2024-02-26T11:01:51;25.42;;;11.75;;
58083;SDS011;43882;51.550;11.858;2024-02-26T11:04:17;24.75;;;11.48;;
58083;SDS011;43882;51.550;11.858;2024-02-26T11:06:46;26.55;;;11.35;;
58083;SDS011;43882;51.550;11.858;2024-02-26T11:09:13;25.10;;;11.40;;
58083;SDS011;43882;51.550;11.858;2024-02-26T11:11:40;24.15;;;11.48;;
58083;SDS011;43882;51.550;11.858;2024-02-26T11:14:06;26.40;;;11.05;;
58083;SDS011;43882;51.550;11.858;2024-02-26T11:16:35;25.33;;;11.30;;
58083;SDS011;43882;51.550;11.858;2024-02-26T11:19:02;22.92;;;10.65;;
58083;SDS011;43882;51.550;11.858;2024-02-26T11:21:28;26.83;;;10.90;;
58083;SDS011;43882;51.550;11.858;2024-02-26T11:24:14;25.25;;;10.70;;
58083;SDS011;43882;51.550;11.858;2024-02-26T11:26:45;24.17;;;10.32;;
58083;SDS011;43882;51.550;11.858;2024-02-26T11:29:23;22.15;;;10.35;;
58083;SDS011;43882;51.550;11.858;2024-02-26T11:31:52;22.95;;;10.10;;
58083;SDS011;43882;51.550;11.858;2024-02-26T11:34:18;22.85;;;9.98;;
58083;SDS011;43882;51.550;11.858;2024-02-26T11:36:45;24.08;;;9.82;;
58083;SDS011;43882;51.550;11.858;2024-02-26T11:39:12;22.92;;;9.38;;
58083;SDS011;43882;51.550;11.858;2024-02-26T11:41:40;23.92;;;10.25;;
58083;SDS011;43882;51.550;11.858;2024-02-26T11:44:06;23.00;;;10.30;;
58083;SDS011;43882;51.550;11.858;2024-02-26T11:46:33;25.98;;;10.90;;
58083;SDS011;43882;51.550;11.858;2024-02-26T11:51:55;23.17;;;10.00;;
58083;SDS011;43882;51.550;11.858;2024-02-26T11:57:21;23.40;;;10.57;;
58083;SDS011;43882;51.550;11.858;2024-02-26T11:59:52;23.90;;;10.32;;
58083;SDS011;43882;51.550;11.858;2024-02-26T12:02:38;24.58;;;10.52;;
58083;SDS011;43882;51.550;11.858;2024-02-26T12:05:10;21.65;;;9.52;;
58083;SDS011;43882;51.550;11.858;2024-02-26T12:07:42;22.83;;;10.15;;
58083;SDS011;43882;51.550;11.858;2024-02-26T12:15:37;22.63;;;9.95;;
58083;SDS011;43882;51.550;11.858;2024-02-26T12:18:05;24.42;;;10.02;;
58083;SDS011;43882;51.550;11.858;2024-02-26T12:20:32;23.83;;;10.40;;
58083;SDS011;43882;51.550;11.858;2024-02-26T12:22:59;22.77;;;9.75;;
58083;SDS011;43882;51.550;11.858;2024-02-26T12:25:26;24.50;;;10.07;;
58083;SDS011;43882;51.550;11.858;2024-02-26T12:27:54;23.20;;;10.27;;
58083;SDS011;43882;51.550;11.858;2024-02-26T12:30:20;23.98;;;10.85;;
58083;SDS011;43882;51.550;11.858;2024-02-26T12:32:47;24.77;;;9.93;;
58083;SDS011;43882;51.550;11.858;2024-02-26T12:35:14;23.35;;;10.70;;
58083;SDS011;43882;51.550;11.858;2024-02-26T12:37:41;22.55;;;9.95;;
58083;SDS011;43882;51.550;11.858;2024-02-26T12:40:10;23.48;;;9.98;;
58083;SDS011;43882;51.550;11.858;2024-02-26T12:42:37;23.35;;;10.20;;
58083;SDS011;43882;51.550;11.858;2024-02-26T12:45:05;22.92;;;9.93;;
58083;SDS011;43882;51.550;11.858;2024-02-26T12:47:43;22.42;;;9.68;;
58083;SDS011;43882;51.550;11.858;2024-02-26T12:50:14;22.08;;;9.45;;
58083;SDS011;43882;51.550;11.858;2024-02-26T12:52:42;22.80;;;10.73;;
58083;SDS011;43882;51.550;11.858;2024-02-26T12:55:11;24.60;;;10.55;;
58083;SDS011;43882;51.550;11.858;2024-02-26T12:57:39;22.73;;;9.65;;
58083;SDS011;43882;51.550;11.858;2024-02-26T13:00:08;23.10;;;9.55;;
58083;SDS011;43882;51.550;11.858;2024-02-26T13:02:36;21.90;;;9.48;;
58083;SDS011;43882;51.550;11.858;2024-02-26T13:05:03;24.25;;;10.07;;
58083;SDS011;43882;51.550;11.858;2024-02-26T13:07:30;21.90;;;9.27;;
58083;SDS011;43882;51.550;11.858;2024-02-26T13:09:56;23.58;;;9.57;;
58083;SDS011;43882;51.550;11.858;2024-02-26T13:12:22;20.52;;;9.30;;
58083;SDS011;43882;51.550;11.858;2024-02-26T13:14:58;20.50;;;8.98;;
58083;SDS011;43882;51.550;11.858;2024-02-26T13:17:30;21.90;;;8.45;;
58083;SDS011;43882;51.550;11.858;2024-02-26T13:19:57;21.70;;;8.85;;
58083;SDS011;43882;51.550;11.858;2024-02-26T13:22:23;23.05;;;9.27;;
58083;SDS011;43882;51.550;11.858;2024-02-26T13:24:59;23.88;;;9.18;;
58083;SDS011;43882;51.550;11.858;2024-02-26T13:27:27;20.33;;;8.43;;
58083;SDS011;43882;51.550;11.858;2024-02-26T13:30:09;22.20;;;9.20;;
58083;SDS011;43882;51.550;11.858;2024-02-26T13:35:12;24.83;;;9.95;;
58083;SDS011;43882;51.550;11.858;2024-02-26T13:40:05;21.58;;;9.60;;
58083;SDS011;43882;51.550;11.858;2024-02-26T13:42:33;22.35;;;9.48;;
58083;SDS011;43882;51.550;11.858;2024-02-26T13:45:00;22.42;;;9.48;;
58083;SDS011;43882;51.550;11.858;2024-02-26T13:47:26;23.30;;;10.77;;
58083;SDS011;43882;51.550;11.858;2024-02-26T13:49:52;22.92;;;9.77;;
58083;SDS011;43882;51.550;11.858;2024-02-26T13:52:18;22.27;;;9.82;;
58083;SDS011;43882;51.550;11.858;2024-02-26T13:54:47;23.77;;;10.30;;
58083;SDS011;43882;51.550;11.858;2024-02-26T13:57:13;24.20;;;10.95;;
58083;SDS011;43882;51.550;11.858;2024-02-26T13:59:40;24.52;;;10.23;;
58083;SDS011;43882;51.550;11.858;2024-02-26T14:02:07;29.08;;;11.57;;
58083;SDS011;43882;51.550;11.858;2024-02-26T14:04:34;24.02;;;10.95;;
58083;SDS011;43882;51.550;11.858;2024-02-26T14:07:01;24.02;;;11.05;;
58083;SDS011;43882;51.550;11.858;2024-02-26T14:09:28;24.58;;;10.57;;
58083;SDS011;43882;51.550;11.858;2024-02-26T14:11:54;22.63;;;10.20;;
58083;SDS011;43882;51.550;11.858;2024-02-26T14:14:20;23.27;;;10.13;;
58083;SDS011;43882;51.550;11.858;2024-02-26T14:16:46;23.75;;;10.68;;
58083;SDS011;43882;51.550;11.858;2024-02-26T14:19:12;23.17;;;10.65;;
58083;SDS011;43882;51.550;11.858;2024-02-26T14:21:38;22.75;;;10.63;;
58083;SDS011;43882;51.550;11.858;2024-02-26T14:24:04;24.98;;;10.70;;
58083;SDS011;43882;51.550;11.858;2024-02-26T14:26:31;23.98;;;10.38;;
58083;SDS011;43882;51.550;11.858;2024-02-26T14:28:57;25.80;;;11.13;;
58083;SDS011;43882;51.550;11.858;2024-02-26T14:31:23;26.05;;;10.77;;